sensor_id;sensor_type;location;lat;lon;timestamp;P1;durP1;ratioP1;P2;durP2;ratioP2
28166;SDS011;15455;53.376;-6.262;2023-04-24T00:01:33;20.42;;;10.43;;
28166;SDS011;15455;53.376;-6.262;2023-04-24T00:04:19;17.50;;;10.02;;
28166;SDS011;15455;53.376;-6.262;2023-04-24T00:07:05;17.60;;;9.55;;
28166;SDS011;15455;53.376;-6.262;2023-04-24T00:09:51;15.10;;;9.25;;
28166;SDS011;15455;53.376;-6.262;2023-04-24T00:12:37;14.77;;;8.48;;
28166;SDS011;15455;53.376;-6.262;2023-04-24T00:15:23;16.52;;;8.18;;
28166;SDS011;15455;53.376;-6.262;2023-04-24T00:18:09;14.05;;;8.48;;
28166;SDS011;15455;53.376;-6.262;2023-04-24T00:20:54;14.35;;;8.15;;
28166;SDS011;15455;53.376;-6.262;2023-04-24T00:23:39;14.13;;;8.43;;
28166;SDS011;15455;53.376;-6.262;2023-04-24T00:26:25;17.35;;;7.57;;
28166;SDS011;15455;53.376;-6.262;2023-04-24T00:29:11;11.93;;;7.07;;
28166;SDS011;15455;53.376;-6.262;2023-04-24T00:31:56;11.27;;;6.80;;
28166;SDS011;15455;53.376;-6.262;2023-04-24T00:34:42;13.88;;;7.55;;
28166;SDS011;15455;53.376;-6.262;2023-04-24T00:37:27;10.57;;;6.72;;
28166;SDS011;15455;53.376;-6.262;2023-04-24T00:40:14;17.77;;;6.90;;
28166;SDS011;15455;53.376;-6.262;2023-04-24T00:43:00;14.82;;;7.13;;
28166;SDS011;15455;53.376;-6.262;2023-04-24T00:45:46;15.63;;;6.22;;
28166;SDS011;15455;53.376;-6.262;2023-04-24T00:48:31;12.00;;;6.18;;
28166;SDS011;15455;53.376;-6.262;2023-04-24T00:51:17;11.85;;;7.05;;
28166;SDS011;15455;53.376;-6.262;2023-04-24T00:54:03;10.52;;;6.38;;
28166;SDS011;15455;53.376;-6.262;2023-04-24T00:56:48;12.52;;;6.45;;
28166;SDS011;15455;53.376;-6.262;2023-04-24T00:59:34;11.98;;;6.25;;
28166;SDS011;15455;53.376;-6.262;2023-04-24T01:02:21;12.32;;;6.55;;
28166;SDS011;15455;53.376;-6.262;2023-04-24T01:05:08;11.45;;;5.95;;
28166;SDS011;15455;53.376;-6.262;2023-04-24T01:07:53;12.65;;;5.65;;
28166;SDS011;15455;53.376;-6.262;2023-04-24T01:10:40;14.35;;;5.85;;
28166;SDS011;15455;53.376;-6.262;2023-04-24T01:13:26;11.68;;;4.95;;
28166;SDS011;15455;53.376;-6.262;2023-04-24T01:16:13;10.20;;;5.63;;
28166;SDS011;15455;53.376;-6.262;2023-04-24T01:19:00;14.10;;;6.03;;
28166;SDS011;15455;53.376;-6.262;2023-04-24T01:21:45;11.55;;;5.55;;
28166;SDS011;15455;53.376;-6.262;2023-04-24T01:24:32;17.52;;;5.32;;
28166;SDS011;15455;53.376;-6.262;2023-04-24T01:27:18;13.55;;;4.88;;
28166;SDS011;15455;53.376;-6.262;2023-04-24T01:30:04;8.48;;;4.75;;
28166;SDS011;15455;53.376;-6.262;2023-04-24T01:32:51;16.13;;;4.88;;
28166;SDS011;15455;53.376;-6.262;2023-04-24T01:35:37;11.70;;;5.25;;
28166;SDS011;15455;53.376;-6.262;2023-04-24T01:38:22;12.40;;;5.53;;
28166;SDS011;15455;53.376;-6.262;2023-04-24T01:41:08;11.27;;;4.97;;
28166;SDS011;15455;53.376;-6.262;2023-04-24T01:43:54;15.15;;;5.22;;
28166;SDS011;15455;53.376;-6.262;2023-04-24T01:46:41;8.63;;;4.65;;
28166;SDS011;15455;53.376;-6.262;2023-04-24T01:49:27;11.90;;;4.88;;
28166;SDS011;15455;53.376;-6.262;2023-04-24T01:52:13;8.57;;;4.93;;
28166;SDS011;15455;53.376;-6.262;2023-04-24T01:55:05;22.75;;;6.85;;
28166;SDS011;15455;53.376;-6.262;2023-04-24T01:57:52;13.00;;;4.88;;
28166;SDS011;15455;53.376;-6.262;2023-04-24T02:00:39;8.60;;;4.85;;
28166;SDS011;15455;53.376;-6.262;2023-04-24T02:03:25;17.20;;;5.00;;
28166;SDS011;15455;53.376;-6.262;2023-04-24T02:06:14;6.32;;;4.68;;
28166;SDS011;15455;53.376;-6.262;2023-04-24T02:09:00;10.27;;;4.32;;
28166;SDS011;15455;53.376;-6.262;2023-04-24T02:11:45;11.10;;;4.00;;
28166;SDS011;15455;53.376;-6.262;2023-04-24T02:14:31;12.30;;;5.35;;
28166;SDS011;15455;53.376;-6.262;2023-04-24T02:17:17;10.70;;;4.05;;
28166;SDS011;15455;53.376;-6.262;2023-04-24T02:20:06;6.32;;;3.45;;
28166;SDS011;15455;53.376;-6.262;2023-04-24T02:22:52;10.13;;;4.18;;
28166;SDS011;15455;53.376;-6.262;2023-04-24T02:25:38;9.55;;;4.32;;
28166;SDS011;15455;53.376;-6.262;2023-04-24T02:28:23;8.55;;;4.93;;
28166;SDS011;15455;53.376;-6.262;2023-04-24T02:31:09;14.75;;;5.07;;
28166;SDS011;15455;53.376;-6.262;2023-04-24T02:33:54;9.52;;;5.45;;
28166;SDS011;15455;53.376;-6.262;2023-04-24T02:36:39;10.07;;;4.55;;
28166;SDS011;15455;53.376;-6.262;2023-04-24T02:39:25;11.35;;;5.40;;
28166;SDS011;15455;53.376;-6.262;2023-04-24T02:42:11;13.73;;;5.30;;
28166;SDS011;15455;53.376;-6.262;2023-04-24T02:44:57;8.90;;;5.15;;
28166;SDS011;15455;53.376;-6.262;2023-04-24T02:47:42;12.57;;;5.45;;
28166;SDS011;15455;53.376;-6.262;2023-04-24T02:50:28;10.10;;;5.15;;
28166;SDS011;15455;53.376;-6.262;2023-04-24T02:53:13;12.77;;;4.97;;
28166;SDS011;15455;53.376;-6.262;2023-04-24T02:55:59;10.65;;;5.20;;
28166;SDS011;15455;53.376;-6.262;2023-04-24T02:58:44;17.13;;;5.00;;
28166;SDS011;15455;53.376;-6.262;2023-04-24T03:01:30;15.23;;;4.80;;
28166;SDS011;15455;53.376;-6.262;2023-04-24T03:04:15;10.27;;;4.53;;
28166;SDS011;15455;53.376;-6.262;2023-04-24T03:07:02;7.57;;;4.57;;
28166;SDS011;15455;53.376;-6.262;2023-04-24T03:09:47;6.25;;;4.00;;
28166;SDS011;15455;53.376;-6.262;2023-04-24T03:12:33;6.75;;;4.20;;
28166;SDS011;15455;53.376;-6.262;2023-04-24T03:15:18;10.15;;;5.13;;
28166;SDS011;15455;53.376;-6.262;2023-04-24T03:18:04;12.05;;;4.80;;
28166;SDS011;15455;53.376;-6.262;2023-04-24T03:20:49;18.77;;;5.15;;
28166;SDS011;15455;53.376;-6.262;2023-04-24T03:23:35;15.48;;;5.35;;
28166;SDS011;15455;53.376;-6.262;2023-04-24T03:26:21;13.93;;;5.03;;
28166;SDS011;15455;53.376;-6.262;2023-04-24T03:29:19;11.50;;;4.88;;
28166;SDS011;15455;53.376;-6.262;2023-04-24T03:32:04;15.77;;;4.88;;
28166;SDS011;15455;53.376;-6.262;2023-04-24T03:34:51;11.68;;;4.53;;
28166;SDS011;15455;53.376;-6.262;2023-04-24T03:37:37;16.45;;;5.47;;
28166;SDS011;15455;53.376;-6.262;2023-04-24T03:40:42;9.02;;;4.70;;
28166;SDS011;15455;53.376;-6.262;2023-04-24T03:43:46;12.68;;;5.15;;
28166;SDS011;15455;53.376;-6.262;2023-04-24T03:46:33;11.50;;;5.32;;
28166;SDS011;15455;53.376;-6.262;2023-04-24T03:49:19;6.93;;;5.45;;
28166;SDS011;15455;53.376;-6.262;2023-04-24T03:52:05;15.60;;;5.10;;
28166;SDS011;15455;53.376;-6.262;2023-04-24T03:54:51;10.45;;;4.80;;
28166;SDS011;15455;53.376;-6.262;2023-04-24T03:57:36;7.05;;;4.32;;
28166;SDS011;15455;53.376;-6.262;2023-04-24T04:00:33;10.00;;;3.33;;
28166;SDS011;15455;53.376;-6.262;2023-04-24T04:03:39;14.13;;;3.28;;
28166;SDS011;15455;53.376;-6.262;2023-04-24T04:06:25;5.68;;;2.88;;
28166;SDS011;15455;53.376;-6.262;2023-04-24T04:09:13;4.35;;;2.35;;
28166;SDS011;15455;53.376;-6.262;2023-04-24T04:11:58;5.20;;;2.17;;
28166;SDS011;15455;53.376;-6.262;2023-04-24T04:14:46;3.72;;;2.20;;
28166;SDS011;15455;53.376;-6.262;2023-04-24T04:17:32;7.88;;;2.33;;
28166;SDS011;15455;53.376;-6.262;2023-04-24T04:20:18;6.82;;;2.17;;
28166;SDS011;15455;53.376;-6.262;2023-04-24T04:23:04;3.80;;;2.38;;
28166;SDS011;15455;53.376;-6.262;2023-04-24T04:26:03;3.42;;;1.95;;
28166;SDS011;15455;53.376;-6.262;2023-04-24T04:29:04;6.32;;;2.17;;
28166;SDS011;15455;53.376;-6.262;2023-04-24T04:31:51;6.00;;;1.67;;
28166;SDS011;15455;53.376;-6.262;2023-04-24T04:34:38;7.60;;;1.80;;
28166;SDS011;15455;53.376;-6.262;2023-04-24T04:37:27;5.93;;;2.10;;
28166;SDS011;15455;53.376;-6.262;2023-04-24T04:40:45;5.03;;;1.73;;
28166;SDS011;15455;53.376;-6.262;2023-04-24T04:43:33;7.90;;;2.22;;
28166;SDS011;15455;53.376;-6.262;2023-04-24T04:46:19;6.55;;;2.60;;
28166;SDS011;15455;53.376;-6.262;2023-04-24T04:49:15;9.32;;;2.00;;
28166;SDS011;15455;53.376;-6.262;2023-04-24T04:52:03;8.68;;;2.33;;
28166;SDS011;15455;53.376;-6.262;2023-04-24T04:54:49;12.20;;;2.20;;
28166;SDS011;15455;53.376;-6.262;2023-04-24T04:57:34;7.25;;;1.70;;
28166;SDS011;15455;53.376;-6.262;2023-04-24T05:00:21;8.73;;;2.28;;
28166;SDS011;15455;53.376;-6.262;2023-04-24T05:03:12;10.57;;;1.90;;
28166;SDS011;15455;53.376;-6.262;2023-04-24T05:06:03;7.57;;;1.70;;
28166;SDS011;15455;53.376;-6.262;2023-04-24T05:08:52;4.85;;;1.77;;
28166;SDS011;15455;53.376;-6.262;2023-04-24T05:11:57;8.27;;;1.65;;
28166;SDS011;15455;53.376;-6.262;2023-04-24T05:14:45;7.57;;;2.15;;
28166;SDS011;15455;53.376;-6.262;2023-04-24T05:17:30;10.00;;;1.90;;
28166;SDS011;15455;53.376;-6.262;2023-04-24T05:20:16;4.55;;;1.10;;
28166;SDS011;15455;53.376;-6.262;2023-04-24T05:23:02;7.72;;;1.63;;
28166;SDS011;15455;53.376;-6.262;2023-04-24T05:25:48;8.77;;;1.80;;
28166;SDS011;15455;53.376;-6.262;2023-04-24T05:28:34;6.93;;;1.65;;
28166;SDS011;15455;53.376;-6.262;2023-04-24T05:31:27;12.40;;;1.58;;
28166;SDS011;15455;53.376;-6.262;2023-04-24T05:34:13;5.90;;;1.67;;
28166;SDS011;15455;53.376;-6.262;2023-04-24T05:37:01;10.43;;;1.55;;
28166;SDS011;15455;53.376;-6.262;2023-04-24T05:39:48;13.98;;;1.52;;
28166;SDS011;15455;53.376;-6.262;2023-04-24T05:42:33;6.20;;;1.40;;
28166;SDS011;15455;53.376;-6.262;2023-04-24T05:45:18;6.82;;;1.80;;
28166;SDS011;15455;53.376;-6.262;2023-04-24T05:48:04;2.22;;;1.50;;
28166;SDS011;15455;53.376;-6.262;2023-04-24T05:50:50;6.05;;;1.63;;
28166;SDS011;15455;53.376;-6.262;2023-04-24T05:53:37;4.43;;;1.17;;
28166;SDS011;15455;53.376;-6.262;2023-04-24T05:56:23;7.95;;;1.77;;
28166;SDS011;15455;53.376;-6.262;2023-04-24T05:59:09;7.93;;;1.23;;
28166;SDS011;15455;53.376;-6.262;2023-04-24T06:01:55;5.07;;;1.45;;
28166;SDS011;15455;53.376;-6.262;2023-04-24T06:04:42;7.00;;;1.65;;
28166;SDS011;15455;53.376;-6.262;2023-04-24T06:07:28;7.40;;;2.08;;
28166;SDS011;15455;53.376;-6.262;2023-04-24T06:10:14;4.70;;;1.38;;
28166;SDS011;15455;53.376;-6.262;2023-04-24T06:13:02;11.45;;;1.83;;
28166;SDS011;15455;53.376;-6.262;2023-04-24T06:15:49;8.45;;;1.90;;
28166;SDS011;15455;53.376;-6.262;2023-04-24T06:18:39;2.85;;;1.48;;
28166;SDS011;15455;53.376;-6.262;2023-04-24T06:21:25;5.70;;;1.73;;
28166;SDS011;15455;53.376;-6.262;2023-04-24T06:24:13;7.78;;;2.13;;
28166;SDS011;15455;53.376;-6.262;2023-04-24T06:27:00;4.20;;;1.40;;
28166;SDS011;15455;53.376;-6.262;2023-04-24T06:29:46;8.13;;;2.17;;
28166;SDS011;15455;53.376;-6.262;2023-04-24T06:32:39;4.68;;;1.55;;
28166;SDS011;15455;53.376;-6.262;2023-04-24T06:35:25;2.60;;;1.42;;
28166;SDS011;15455;53.376;-6.262;2023-04-24T06:38:10;3.65;;;0.80;;
28166;SDS011;15455;53.376;-6.262;2023-04-24T06:40:56;1.60;;;0.98;;
28166;SDS011;15455;53.376;-6.262;2023-04-24T06:43:42;2.88;;;1.35;;
28166;SDS011;15455;53.376;-6.262;2023-04-24T06:46:27;1.63;;;1.10;;
28166;SDS011;15455;53.376;-6.262;2023-04-24T06:49:13;7.10;;;1.27;;
28166;SDS011;15455;53.376;-6.262;2023-04-24T06:52:01;1.90;;;0.93;;
28166;SDS011;15455;53.376;-6.262;2023-04-24T06:54:47;4.82;;;0.85;;
28166;SDS011;15455;53.376;-6.262;2023-04-24T06:57:32;6.18;;;1.00;;
28166;SDS011;15455;53.376;-6.262;2023-04-24T07:00:18;3.67;;;1.00;;
28166;SDS011;15455;53.376;-6.262;2023-04-24T07:03:04;3.20;;;1.20;;
28166;SDS011;15455;53.376;-6.262;2023-04-24T07:05:52;5.40;;;1.30;;
28166;SDS011;15455;53.376;-6.262;2023-04-24T07:08:39;5.85;;;1.40;;
28166;SDS011;15455;53.376;-6.262;2023-04-24T07:11:27;6.18;;;1.48;;
28166;SDS011;15455;53.376;-6.262;2023-04-24T07:14:14;4.25;;;1.55;;
28166;SDS011;15455;53.376;-6.262;2023-04-24T07:17:00;2.92;;;1.20;;
28166;SDS011;15455;53.376;-6.262;2023-04-24T07:19:46;6.07;;;1.40;;
28166;SDS011;15455;53.376;-6.262;2023-04-24T07:22:32;3.50;;;1.25;;
28166;SDS011;15455;53.376;-6.262;2023-04-24T07:25:17;6.28;;;1.50;;
28166;SDS011;15455;53.376;-6.262;2023-04-24T07:28:02;3.17;;;1.42;;
28166;SDS011;15455;53.376;-6.262;2023-04-24T07:30:49;7.38;;;1.55;;
28166;SDS011;15455;53.376;-6.262;2023-04-24T07:33:34;7.22;;;1.55;;
28166;SDS011;15455;53.376;-6.262;2023-04-24T07:36:21;3.92;;;1.00;;
28166;SDS011;15455;53.376;-6.262;2023-04-24T07:39:06;3.92;;;1.00;;
28166;SDS011;15455;53.376;-6.262;2023-04-24T07:41:53;5.95;;;1.15;;
28166;SDS011;15455;53.376;-6.262;2023-04-24T07:44:38;9.60;;;1.13;;
28166;SDS011;15455;53.376;-6.262;2023-04-24T07:47:23;3.83;;;1.00;;
28166;SDS011;15455;53.376;-6.262;2023-04-24T07:50:09;11.52;;;1.42;;
28166;SDS011;15455;53.376;-6.262;2023-04-24T07:52:55;9.18;;;1.25;;
28166;SDS011;15455;53.376;-6.262;2023-04-24T07:55:41;10.07;;;1.58;;
28166;SDS011;15455;53.376;-6.262;2023-04-24T07:58:26;5.65;;;1.50;;
28166;SDS011;15455;53.376;-6.262;2023-04-24T08:01:11;8.10;;;1.80;;
28166;SDS011;15455;53.376;-6.262;2023-04-24T08:03:58;2.05;;;1.38;;
28166;SDS011;15455;53.376;-6.262;2023-04-24T08:06:44;7.88;;;2.30;;
28166;SDS011;15455;53.376;-6.262;2023-04-24T08:09:30;4.35;;;1.35;;
28166;SDS011;15455;53.376;-6.262;2023-04-24T08:12:15;9.35;;;1.60;;
28166;SDS011;15455;53.376;-6.262;2023-04-24T08:15:01;10.23;;;1.75;;
28166;SDS011;15455;53.376;-6.262;2023-04-24T08:17:46;7.60;;;1.92;;
28166;SDS011;15455;53.376;-6.262;2023-04-24T08:20:32;12.45;;;2.28;;
28166;SDS011;15455;53.376;-6.262;2023-04-24T08:23:17;12.27;;;1.85;;
28166;SDS011;15455;53.376;-6.262;2023-04-24T08:26:03;6.70;;;1.55;;
28166;SDS011;15455;53.376;-6.262;2023-04-24T08:28:48;5.35;;;1.05;;
28166;SDS011;15455;53.376;-6.262;2023-04-24T08:31:34;5.28;;;1.35;;
28166;SDS011;15455;53.376;-6.262;2023-04-24T08:34:20;9.50;;;1.38;;
28166;SDS011;15455;53.376;-6.262;2023-04-24T08:37:07;13.63;;;1.80;;
28166;SDS011;15455;53.376;-6.262;2023-04-24T08:39:52;4.70;;;1.58;;
28166;SDS011;15455;53.376;-6.262;2023-04-24T08:42:38;5.05;;;1.38;;
28166;SDS011;15455;53.376;-6.262;2023-04-24T08:45:25;5.32;;;1.95;;
28166;SDS011;15455;53.376;-6.262;2023-04-24T08:48:11;4.97;;;1.60;;
28166;SDS011;15455;53.376;-6.262;2023-04-24T08:51:11;7.35;;;1.92;;
28166;SDS011;15455;53.376;-6.262;2023-04-24T08:53:57;4.82;;;1.42;;
28166;SDS011;15455;53.376;-6.262;2023-04-24T08:56:43;6.22;;;1.30;;
28166;SDS011;15455;53.376;-6.262;2023-04-24T08:59:30;4.28;;;1.65;;
28166;SDS011;15455;53.376;-6.262;2023-04-24T09:02:16;2.03;;;1.13;;
28166;SDS011;15455;53.376;-6.262;2023-04-24T09:05:03;4.07;;;1.10;;
28166;SDS011;15455;53.376;-6.262;2023-04-24T09:07:56;3.22;;;1.23;;
28166;SDS011;15455;53.376;-6.262;2023-04-24T09:10:42;1.38;;;1.05;;
28166;SDS011;15455;53.376;-6.262;2023-04-24T09:13:28;5.43;;;1.45;;
28166;SDS011;15455;53.376;-6.262;2023-04-24T09:16:14;6.03;;;1.30;;
28166;SDS011;15455;53.376;-6.262;2023-04-24T09:18:59;4.50;;;1.15;;
28166;SDS011;15455;53.376;-6.262;2023-04-24T09:21:45;5.45;;;1.42;;
28166;SDS011;15455;53.376;-6.262;2023-04-24T09:24:31;5.93;;;1.55;;
28166;SDS011;15455;53.376;-6.262;2023-04-24T09:27:17;3.60;;;1.63;;
28166;SDS011;15455;53.376;-6.262;2023-04-24T09:30:04;5.63;;;1.17;;
28166;SDS011;15455;53.376;-6.262;2023-04-24T09:32:50;8.63;;;1.58;;
28166;SDS011;15455;53.376;-6.262;2023-04-24T09:35:55;5.10;;;1.60;;
28166;SDS011;15455;53.376;-6.262;2023-04-24T09:38:40;5.18;;;1.45;;
28166;SDS011;15455;53.376;-6.262;2023-04-24T09:41:26;3.55;;;1.10;;
28166;SDS011;15455;53.376;-6.262;2023-04-24T09:44:13;4.95;;;1.58;;
28166;SDS011;15455;53.376;-6.262;2023-04-24T09:47:00;8.18;;;1.67;;
28166;SDS011;15455;53.376;-6.262;2023-04-24T09:49:46;3.08;;;1.58;;
28166;SDS011;15455;53.376;-6.262;2023-04-24T09:52:31;7.25;;;1.40;;
28166;SDS011;15455;53.376;-6.262;2023-04-24T09:55:18;5.85;;;1.48;;
28166;SDS011;15455;53.376;-6.262;2023-04-24T09:58:05;2.15;;;1.25;;
28166;SDS011;15455;53.376;-6.262;2023-04-24T10:00:54;2.45;;;1.20;;
28166;SDS011;15455;53.376;-6.262;2023-04-24T10:03:41;6.97;;;1.67;;
28166;SDS011;15455;53.376;-6.262;2023-04-24T10:06:34;6.90;;;1.30;;
28166;SDS011;15455;53.376;-6.262;2023-04-24T10:09:20;6.55;;;1.60;;
28166;SDS011;15455;53.376;-6.262;2023-04-24T10:12:11;3.03;;;1.73;;
28166;SDS011;15455;53.376;-6.262;2023-04-24T10:14:58;9.73;;;1.67;;
28166;SDS011;15455;53.376;-6.262;2023-04-24T10:17:44;10.95;;;1.98;;
28166;SDS011;15455;53.376;-6.262;2023-04-24T10:20:30;7.70;;;1.77;;
28166;SDS011;15455;53.376;-6.262;2023-04-24T10:23:16;8.20;;;1.52;;
28166;SDS011;15455;53.376;-6.262;2023-04-24T10:26:04;8.07;;;1.83;;
28166;SDS011;15455;53.376;-6.262;2023-04-24T10:28:50;6.47;;;1.75;;
28166;SDS011;15455;53.376;-6.262;2023-04-24T10:31:36;7.10;;;1.48;;
28166;SDS011;15455;53.376;-6.262;2023-04-24T10:34:23;6.47;;;1.48;;
28166;SDS011;15455;53.376;-6.262;2023-04-24T10:37:10;5.95;;;1.67;;
28166;SDS011;15455;53.376;-6.262;2023-04-24T10:39:56;5.32;;;1.70;;
28166;SDS011;15455;53.376;-6.262;2023-04-24T10:42:42;5.72;;;1.45;;
28166;SDS011;15455;53.376;-6.262;2023-04-24T10:45:31;3.83;;;1.40;;
28166;SDS011;15455;53.376;-6.262;2023-04-24T10:48:17;11.57;;;1.95;;
28166;SDS011;15455;53.376;-6.262;2023-04-24T10:51:03;6.13;;;1.27;;
28166;SDS011;15455;53.376;-6.262;2023-04-24T10:53:51;8.88;;;2.28;;
28166;SDS011;15455;53.376;-6.262;2023-04-24T10:56:37;8.27;;;2.80;;
28166;SDS011;15455;53.376;-6.262;2023-04-24T10:59:25;5.70;;;1.20;;
28166;SDS011;15455;53.376;-6.262;2023-04-24T11:02:23;3.60;;;1.38;;
28166;SDS011;15455;53.376;-6.262;2023-04-24T11:05:48;7.60;;;1.52;;
28166;SDS011;15455;53.376;-6.262;2023-04-24T11:08:39;7.97;;;1.70;;
28166;SDS011;15455;53.376;-6.262;2023-04-24T11:11:28;9.75;;;2.22;;
28166;SDS011;15455;53.376;-6.262;2023-04-24T11:14:15;13.00;;;2.08;;
28166;SDS011;15455;53.376;-6.262;2023-04-24T11:17:01;4.47;;;1.15;;
28166;SDS011;15455;53.376;-6.262;2023-04-24T11:19:50;6.60;;;1.67;;
28166;SDS011;15455;53.376;-6.262;2023-04-24T11:22:38;8.97;;;1.17;;
28166;SDS011;15455;53.376;-6.262;2023-04-24T11:25:28;4.22;;;1.02;;
28166;SDS011;15455;53.376;-6.262;2023-04-24T11:28:15;8.10;;;1.58;;
28166;SDS011;15455;53.376;-6.262;2023-04-24T11:31:33;7.18;;;1.35;;
28166;SDS011;15455;53.376;-6.262;2023-04-24T11:34:19;9.63;;;1.38;;
28166;SDS011;15455;53.376;-6.262;2023-04-24T11:37:05;5.57;;;1.30;;
28166;SDS011;15455;53.376;-6.262;2023-04-24T11:39:52;4.60;;;2.13;;
28166;SDS011;15455;53.376;-6.262;2023-04-24T11:42:42;6.72;;;1.50;;
28166;SDS011;15455;53.376;-6.262;2023-04-24T11:45:31;8.52;;;1.90;;
28166;SDS011;15455;53.376;-6.262;2023-04-24T11:48:20;9.13;;;1.63;;
28166;SDS011;15455;53.376;-6.262;2023-04-24T11:51:08;6.88;;;1.52;;
28166;SDS011;15455;53.376;-6.262;2023-04-24T11:53:54;5.50;;;1.30;;
28166;SDS011;15455;53.376;-6.262;2023-04-24T11:56:48;11.80;;;1.58;;
28166;SDS011;15455;53.376;-6.262;2023-04-24T11:59:35;7.80;;;1.75;;
28166;SDS011;15455;53.376;-6.262;2023-04-24T12:02:22;14.50;;;1.98;;
28166;SDS011;15455;53.376;-6.262;2023-04-24T12:05:19;11.82;;;1.90;;
28166;SDS011;15455;53.376;-6.262;2023-04-24T12:08:12;12.13;;;1.67;;
28166;SDS011;15455;53.376;-6.262;2023-04-24T12:11:14;5.85;;;1.73;;
28166;SDS011;15455;53.376;-6.262;2023-04-24T12:14:18;5.47;;;1.63;;
28166;SDS011;15455;53.376;-6.262;2023-04-24T12:17:04;6.65;;;1.50;;
28166;SDS011;15455;53.376;-6.262;2023-04-24T12:19:49;6.30;;;1.23;;
28166;SDS011;15455;53.376;-6.262;2023-04-24T12:22:48;16.00;;;1.38;;
28166;SDS011;15455;53.376;-6.262;2023-04-24T12:25:38;8.45;;;1.92;;
28166;SDS011;15455;53.376;-6.262;2023-04-24T12:28:24;5.25;;;1.55;;
28166;SDS011;15455;53.376;-6.262;2023-04-24T12:31:09;6.88;;;1.50;;
28166;SDS011;15455;53.376;-6.262;2023-04-24T12:33:54;5.40;;;1.60;;
28166;SDS011;15455;53.376;-6.262;2023-04-24T12:36:40;6.63;;;1.52;;
28166;SDS011;15455;53.376;-6.262;2023-04-24T12:39:25;10.23;;;1.60;;
28166;SDS011;15455;53.376;-6.262;2023-04-24T12:42:11;6.40;;;2.45;;
28166;SDS011;15455;53.376;-6.262;2023-04-24T12:44:58;10.13;;;2.00;;
28166;SDS011;15455;53.376;-6.262;2023-04-24T12:47:46;9.23;;;1.60;;
28166;SDS011;15455;53.376;-6.262;2023-04-24T12:50:31;8.77;;;1.83;;
28166;SDS011;15455;53.376;-6.262;2023-04-24T12:53:17;3.95;;;1.73;;
28166;SDS011;15455;53.376;-6.262;2023-04-24T12:56:02;6.00;;;1.40;;
28166;SDS011;15455;53.376;-6.262;2023-04-24T12:58:48;5.28;;;1.70;;
28166;SDS011;15455;53.376;-6.262;2023-04-24T13:01:33;5.97;;;1.15;;
28166;SDS011;15455;53.376;-6.262;2023-04-24T13:04:19;7.82;;;1.30;;
28166;SDS011;15455;53.376;-6.262;2023-04-24T13:07:05;3.15;;;0.93;;
28166;SDS011;15455;53.376;-6.262;2023-04-24T13:09:51;3.08;;;1.08;;
28166;SDS011;15455;53.376;-6.262;2023-04-24T13:12:37;8.02;;;1.27;;
28166;SDS011;15455;53.376;-6.262;2023-04-24T13:15:23;10.40;;;1.10;;
28166;SDS011;15455;53.376;-6.262;2023-04-24T13:18:09;3.03;;;1.20;;
28166;SDS011;15455;53.376;-6.262;2023-04-24T13:20:55;8.85;;;1.35;;
28166;SDS011;15455;53.376;-6.262;2023-04-24T13:23:40;5.43;;;1.90;;
28166;SDS011;15455;53.376;-6.262;2023-04-24T13:26:26;3.17;;;1.30;;
28166;SDS011;15455;53.376;-6.262;2023-04-24T13:29:12;5.38;;;1.45;;
28166;SDS011;15455;53.376;-6.262;2023-04-24T13:31:58;6.10;;;1.42;;
28166;SDS011;15455;53.376;-6.262;2023-04-24T13:34:43;7.85;;;1.48;;
28166;SDS011;15455;53.376;-6.262;2023-04-24T13:37:29;2.15;;;1.38;;
28166;SDS011;15455;53.376;-6.262;2023-04-24T13:40:15;6.53;;;1.70;;
28166;SDS011;15455;53.376;-6.262;2023-04-24T13:43:01;9.35;;;1.60;;
28166;SDS011;15455;53.376;-6.262;2023-04-24T13:45:46;7.93;;;1.35;;
28166;SDS011;15455;53.376;-6.262;2023-04-24T13:48:32;7.53;;;1.25;;
28166;SDS011;15455;53.376;-6.262;2023-04-24T13:51:17;5.07;;;1.35;;
28166;SDS011;15455;53.376;-6.262;2023-04-24T13:54:03;5.10;;;1.73;;
28166;SDS011;15455;53.376;-6.262;2023-04-24T13:56:49;2.47;;;1.80;;
28166;SDS011;15455;53.376;-6.262;2023-04-24T13:59:35;8.10;;;1.23;;
28166;SDS011;15455;53.376;-6.262;2023-04-24T14:02:20;3.30;;;1.30;;
28166;SDS011;15455;53.376;-6.262;2023-04-24T14:05:07;6.68;;;1.77;;
28166;SDS011;15455;53.376;-6.262;2023-04-24T14:07:52;5.70;;;1.40;;
28166;SDS011;15455;53.376;-6.262;2023-04-24T14:10:38;3.17;;;1.40;;
28166;SDS011;15455;53.376;-6.262;2023-04-24T14:13:23;7.70;;;1.63;;
28166;SDS011;15455;53.376;-6.262;2023-04-24T14:16:09;5.28;;;1.50;;
28166;SDS011;15455;53.376;-6.262;2023-04-24T14:18:55;3.97;;;0.85;;
28166;SDS011;15455;53.376;-6.262;2023-04-24T14:21:41;8.68;;;1.17;;
28166;SDS011;15455;53.376;-6.262;2023-04-24T14:24:26;9.18;;;1.70;;
28166;SDS011;15455;53.376;-6.262;2023-04-24T14:27:12;6.43;;;1.40;;
28166;SDS011;15455;53.376;-6.262;2023-04-24T14:29:57;5.18;;;1.63;;
28166;SDS011;15455;53.376;-6.262;2023-04-24T14:32:43;7.45;;;1.50;;
28166;SDS011;15455;53.376;-6.262;2023-04-24T14:35:29;6.93;;;1.55;;
28166;SDS011;15455;53.376;-6.262;2023-04-24T14:38:16;2.88;;;1.25;;
28166;SDS011;15455;53.376;-6.262;2023-04-24T14:41:01;5.00;;;1.05;;
28166;SDS011;15455;53.376;-6.262;2023-04-24T14:43:58;7.30;;;1.48;;
28166;SDS011;15455;53.376;-6.262;2023-04-24T14:46:43;6.93;;;1.02;;
28166;SDS011;15455;53.376;-6.262;2023-04-24T14:49:29;5.65;;;0.90;;
28166;SDS011;15455;53.376;-6.262;2023-04-24T14:52:14;2.30;;;0.98;;
28166;SDS011;15455;53.376;-6.262;2023-04-24T14:55:01;6.35;;;1.13;;
28166;SDS011;15455;53.376;-6.262;2023-04-24T14:57:46;4.65;;;1.10;;
28166;SDS011;15455;53.376;-6.262;2023-04-24T15:00:32;4.38;;;1.25;;
28166;SDS011;15455;53.376;-6.262;2023-04-24T15:03:18;8.00;;;1.13;;
28166;SDS011;15455;53.376;-6.262;2023-04-24T15:06:04;1.88;;;0.98;;
28166;SDS011;15455;53.376;-6.262;2023-04-24T15:08:50;10.93;;;1.30;;
28166;SDS011;15455;53.376;-6.262;2023-04-24T15:11:36;7.80;;;1.20;;
28166;SDS011;15455;53.376;-6.262;2023-04-24T15:14:22;3.92;;;1.33;;
28166;SDS011;15455;53.376;-6.262;2023-04-24T15:17:07;3.40;;;1.00;;
28166;SDS011;15455;53.376;-6.262;2023-04-24T15:19:52;8.07;;;1.50;;
28166;SDS011;15455;53.376;-6.262;2023-04-24T15:22:38;8.00;;;1.30;;
28166;SDS011;15455;53.376;-6.262;2023-04-24T15:25:23;2.70;;;1.02;;
28166;SDS011;15455;53.376;-6.262;2023-04-24T15:28:09;4.57;;;1.30;;
28166;SDS011;15455;53.376;-6.262;2023-04-24T15:30:55;4.28;;;1.13;;
28166;SDS011;15455;53.376;-6.262;2023-04-24T15:33:40;3.28;;;1.42;;
28166;SDS011;15455;53.376;-6.262;2023-04-24T15:36:26;8.88;;;1.88;;
28166;SDS011;15455;53.376;-6.262;2023-04-24T15:39:11;4.60;;;1.40;;
28166;SDS011;15455;53.376;-6.262;2023-04-24T15:41:56;4.60;;;1.13;;
28166;SDS011;15455;53.376;-6.262;2023-04-24T15:44:42;3.50;;;1.02;;
28166;SDS011;15455;53.376;-6.262;2023-04-24T15:47:29;6.00;;;1.15;;
28166;SDS011;15455;53.376;-6.262;2023-04-24T15:50:15;4.35;;;1.10;;
28166;SDS011;15455;53.376;-6.262;2023-04-24T15:53:01;5.55;;;1.00;;
28166;SDS011;15455;53.376;-6.262;2023-04-24T15:55:47;1.33;;;1.10;;
28166;SDS011;15455;53.376;-6.262;2023-04-24T15:58:33;9.15;;;1.33;;
28166;SDS011;15455;53.376;-6.262;2023-04-24T16:01:19;6.80;;;1.52;;
28166;SDS011;15455;53.376;-6.262;2023-04-24T16:04:05;4.55;;;1.10;;
28166;SDS011;15455;53.376;-6.262;2023-04-24T16:06:50;4.13;;;1.00;;
28166;SDS011;15455;53.376;-6.262;2023-04-24T16:09:37;2.30;;;1.30;;
28166;SDS011;15455;53.376;-6.262;2023-04-24T16:12:22;12.20;;;1.35;;
28166;SDS011;15455;53.376;-6.262;2023-04-24T16:15:11;3.83;;;1.52;;
28166;SDS011;15455;53.376;-6.262;2023-04-24T16:17:57;2.78;;;0.95;;
28166;SDS011;15455;53.376;-6.262;2023-04-24T16:20:43;4.65;;;1.42;;
28166;SDS011;15455;53.376;-6.262;2023-04-24T16:23:29;3.50;;;1.45;;
28166;SDS011;15455;53.376;-6.262;2023-04-24T16:26:15;5.45;;;1.50;;
28166;SDS011;15455;53.376;-6.262;2023-04-24T16:29:00;2.20;;;1.00;;